createdAt,value
2017-08-25T00:00:33.000Z,91.60
2017-08-25T00:03:00.501Z,91.80
2017-08-25T00:05:28.020Z,91.80
2017-08-25T00:07:55.517Z,92.00
2017-08-25T00:10:23.028Z,92.00
2017-08-25T00:12:50.523Z,92.00
2017-08-25T00:15:18.043Z,92.10
2017-08-25T00:17:45.548Z,92.30
2017-08-25T00:20:13.288Z,92.40
2017-08-25T00:22:40.782Z,92.40
2017-08-25T00:25:08.293Z,92.30
2017-08-25T00:27:35.796Z,92.30
2017-08-25T00:30:03.316Z,92.20
2017-08-25T00:32:30.812Z,92.30
2017-08-25T00:34:58.330Z,92.50
2017-08-25T00:37:25.825Z,92.40
2017-08-25T00:39:53.341Z,92.40
2017-08-25T00:42:20.836Z,92.40
2017-08-25T00:44:48.328Z,92.20
2017-08-25T00:47:15.845Z,92.10
2017-08-25T00:49:43.342Z,92.10
2017-08-25T00:52:10.861Z,91.90
2017-08-25T00:54:38.353Z,91.80
2017-08-25T00:57:05.878Z,91.50
2017-08-25T00:59:33.372Z,91.70
2017-08-25T01:02:00.899Z,91.30
2017-08-25T01:04:28.404Z,91.50
2017-08-25T01:06:55.921Z,91.50
2017-08-25T01:09:23.408Z,91.50
2017-08-25T01:11:50.920Z,91.40
2017-08-25T01:14:18.421Z,91.50
2017-08-25T01:16:45.943Z,91.40
2017-08-25T01:19:13.456Z,91.30
2017-08-25T01:21:40.985Z,91.20
2017-08-25T01:24:08.480Z,90.90
2017-08-25T01:26:35.992Z,90.90
2017-08-25T01:29:03.492Z,91.00
2017-08-25T01:31:31.011Z,90.80
2017-08-25T01:33:58.509Z,90.80
2017-08-25T01:36:26.025Z,90.80
2017-08-25T01:38:53.530Z,90.90
2017-08-25T01:41:21.029Z,91.00
2017-08-25T01:43:48.547Z,90.90
2017-08-25T01:46:16.045Z,91.00
2017-08-25T01:48:43.560Z,91.10
2017-08-25T01:51:11.055Z,91.20
2017-08-25T01:53:38.572Z,91.30
2017-08-25T01:56:06.071Z,91.40
2017-08-25T01:58:33.596Z,91.40
2017-08-25T02:01:01.095Z,91.40
2017-08-25T02:03:28.608Z,91.60
2017-08-25T02:05:56.113Z,91.70
2017-08-25T02:08:23.629Z,91.50
2017-08-25T02:10:51.137Z,91.50
2017-08-25T02:13:18.656Z,91.50
2017-08-25T02:15:46.163Z,91.50
2017-08-25T02:18:13.702Z,91.60
2017-08-25T02:20:41.196Z,91.80
2017-08-25T02:23:08.716Z,91.80
2017-08-25T02:25:36.209Z,92.10
2017-08-25T02:28:03.734Z,91.90
2017-08-25T02:30:31.444Z,92.00
2017-08-25T02:32:58.958Z,91.90
2017-08-25T02:35:26.483Z,92.10
2017-08-25T02:37:53.997Z,92.30
2017-08-25T02:40:21.508Z,92.30
2017-08-25T02:42:49.026Z,92.20
2017-08-25T02:45:16.521Z,92.30
2017-08-25T02:47:44.031Z,92.30
2017-08-25T02:50:11.532Z,92.50
2017-08-25T02:52:39.060Z,92.30
2017-08-25T02:55:06.577Z,92.40
2017-08-25T02:57:34.072Z,92.30
2017-08-25T03:00:01.596Z,92.40
2017-08-25T03:02:29.091Z,92.20
2017-08-25T03:04:57.525Z,92.30
2017-08-25T03:07:25.029Z,92.20
2017-08-25T03:09:52.585Z,92.20
2017-08-25T03:12:20.091Z,92.30
2017-08-25T03:14:47.603Z,92.50
2017-08-25T03:17:15.096Z,92.50
2017-08-25T03:19:42.621Z,92.60
2017-08-25T03:22:10.128Z,92.70
2017-08-25T03:24:37.645Z,92.90
2017-08-25T03:27:05.149Z,92.90
2017-08-25T03:29:32.662Z,92.90
2017-08-25T03:32:00.161Z,92.90
2017-08-25T03:34:27.667Z,93.00
2017-08-25T03:36:55.164Z,92.90
2017-08-25T03:39:22.688Z,92.90
2017-08-25T03:41:50.176Z,92.80
2017-08-25T03:44:17.691Z,92.90
2017-08-25T03:46:45.184Z,93.40
2017-08-25T03:49:12.696Z,93.00
2017-08-25T03:51:40.181Z,93.10
2017-08-25T03:54:07.692Z,93.40
2017-08-25T03:56:35.190Z,93.50
2017-08-25T03:59:02.704Z,93.50
2017-08-25T04:01:30.197Z,93.40
2017-08-25T04:03:57.716Z,93.50
2017-08-25T04:06:25.211Z,93.60
2017-08-25T04:08:52.716Z,93.70
2017-08-25T04:11:20.218Z,93.80
2017-08-25T04:13:47.728Z,93.80
2017-08-25T04:16:15.212Z,93.80
2017-08-25T04:18:42.837Z,93.80
2017-08-25T04:21:10.341Z,93.90
2017-08-25T04:23:37.886Z,93.90
2017-08-25T04:26:05.404Z,94.00
2017-08-25T04:28:32.936Z,93.90
2017-08-25T04:31:00.452Z,94.00
2017-08-25T04:33:27.980Z,93.90
2017-08-25T04:35:55.485Z,93.90
2017-08-25T04:38:22.996Z,93.60
2017-08-25T04:40:50.496Z,93.80
2017-08-25T04:43:18.009Z,93.60
2017-08-25T04:45:45.500Z,93.70
2017-08-25T04:48:13.024Z,93.50
2017-08-25T04:50:40.532Z,93.40
2017-08-25T04:53:08.097Z,93.10
2017-08-25T04:55:35.630Z,93.10
2017-08-25T04:58:03.164Z,92.90
2017-08-25T05:00:30.704Z,92.90
2017-08-25T05:02:58.209Z,92.90
2017-08-25T05:05:25.761Z,93.30
2017-08-25T05:07:53.284Z,93.30
2017-08-25T05:10:20.860Z,92.90
2017-08-25T05:12:48.394Z,92.80
2017-08-25T05:15:15.918Z,92.50
2017-08-25T05:17:43.449Z,92.30
2017-08-25T05:20:10.981Z,92.20
2017-08-25T05:22:38.497Z,92.20
2017-08-25T05:25:06.030Z,92.30
2017-08-25T05:27:33.558Z,92.20
2017-08-25T05:30:01.080Z,92.40
2017-08-25T05:32:28.585Z,92.40
2017-08-25T05:34:56.097Z,92.10
2017-08-25T05:37:23.588Z,92.00
2017-08-25T05:39:51.100Z,91.80
2017-08-25T05:42:18.612Z,92.00
2017-08-25T05:44:46.254Z,91.90
2017-08-25T05:47:13.777Z,91.90
2017-08-25T05:49:41.301Z,91.70
2017-08-25T05:52:08.833Z,91.70
2017-08-25T05:54:36.352Z,91.50
2017-08-25T05:57:03.877Z,91.20
2017-08-25T05:59:31.402Z,91.20
2017-08-25T06:01:58.932Z,90.60
2017-08-25T06:04:26.456Z,90.40
2017-08-25T06:06:53.968Z,90.50
2017-08-25T06:09:21.472Z,90.00
2017-08-25T06:11:48.988Z,89.10
2017-08-25T06:14:16.508Z,88.40
2017-08-25T06:16:44.000Z,87.90
2017-08-25T06:19:11.615Z,87.30
2017-08-25T06:21:39.108Z,87.20
2017-08-25T06:24:06.653Z,86.60
2017-08-25T06:26:34.440Z,86.60
2017-08-25T06:29:01.949Z,86.60
2017-08-25T06:31:29.440Z,85.90
2017-08-25T06:33:56.955Z,86.50
2017-08-25T06:36:24.462Z,85.60
2017-08-25T06:38:52.000Z,85.30
2017-08-25T06:41:20.249Z,85.70
2017-08-25T06:43:47.757Z,85.10
2017-08-25T06:46:15.248Z,85.20
2017-08-25T06:48:42.764Z,84.80
2017-08-25T06:51:10.256Z,85.10
2017-08-25T06:53:37.771Z,84.90
2017-08-25T06:56:05.266Z,84.50
2017-08-25T06:58:32.771Z,84.30
2017-08-25T07:01:00.260Z,83.50
2017-08-25T07:03:27.760Z,84.20
2017-08-25T07:05:55.260Z,83.30
2017-08-25T07:08:22.756Z,83.70
2017-08-25T07:10:50.268Z,84.30
2017-08-25T07:13:17.748Z,84.70
2017-08-25T07:15:45.249Z,85.00
2017-08-25T07:18:12.760Z,86.10
2017-08-25T07:20:40.265Z,86.20
2017-08-25T07:23:07.763Z,86.00
2017-08-25T07:25:35.279Z,85.60
2017-08-25T07:28:02.848Z,85.20
2017-08-25T07:30:30.377Z,85.50
2017-08-25T07:32:57.869Z,85.40
2017-08-25T07:35:25.394Z,83.90
2017-08-25T07:37:52.883Z,84.80
2017-08-25T07:40:20.392Z,84.40
2017-08-25T07:42:47.884Z,84.90
2017-08-25T07:45:15.391Z,84.30
2017-08-25T07:47:42.880Z,85.60
2017-08-25T07:50:10.384Z,86.00
2017-08-25T07:52:37.901Z,85.00
2017-08-25T07:55:05.396Z,85.20
2017-08-25T07:57:32.913Z,84.80
2017-08-25T08:00:00.505Z,84.40
2017-08-25T08:02:28.024Z,85.30
2017-08-25T08:04:56.076Z,85.90
2017-08-25T08:07:23.632Z,85.70
2017-08-25T08:09:51.144Z,86.00
2017-08-25T08:12:18.637Z,86.10
2017-08-25T08:14:46.141Z,86.50
2017-08-25T08:17:13.640Z,86.20
2017-08-25T08:19:41.187Z,85.70
2017-08-25T08:22:08.700Z,84.10
2017-08-25T08:24:36.193Z,84.20
2017-08-25T08:27:04.294Z,83.80
2017-08-25T08:29:31.813Z,83.80
2017-08-25T08:31:59.343Z,82.80
2017-08-25T08:34:26.848Z,82.40
2017-08-25T08:36:54.383Z,80.90
2017-08-25T08:39:21.892Z,81.40
2017-08-25T08:41:49.417Z,82.60
2017-08-25T08:44:16.957Z,82.10
2017-08-25T08:46:44.449Z,81.50
2017-08-25T08:49:11.956Z,80.80
2017-08-25T08:51:39.554Z,80.90
2017-08-25T08:54:07.182Z,82.30
2017-08-25T08:56:34.707Z,82.40
2017-08-25T08:59:02.225Z,81.90
2017-08-25T09:01:29.750Z,81.70
2017-08-25T09:03:57.265Z,82.30
2017-08-25T09:06:30.496Z,81.40
2017-08-25T09:08:58.021Z,81.20
2017-08-25T09:11:25.556Z,81.00
2017-08-25T09:13:53.084Z,82.20
2017-08-25T09:16:20.646Z,82.50
2017-08-25T09:18:48.261Z,82.10
2017-08-25T09:21:15.780Z,80.70
2017-08-25T09:23:43.325Z,82.60
2017-08-25T09:26:10.850Z,82.10
2017-08-25T09:28:38.378Z,80.30
2017-08-25T09:31:05.892Z,81.10
2017-08-25T09:33:33.401Z,80.90
2017-08-25T09:36:00.928Z,80.30
2017-08-25T09:38:28.455Z,80.60
2017-08-25T09:40:55.990Z,80.00
2017-08-25T09:43:23.495Z,80.50
2017-08-25T09:45:51.020Z,79.80
2017-08-25T09:48:18.530Z,81.10
2017-08-25T09:50:46.044Z,80.60
2017-08-25T09:53:13.583Z,80.60
2017-08-25T09:55:41.088Z,80.00
2017-08-25T09:58:08.637Z,79.70
2017-08-25T10:00:36.152Z,80.50
2017-08-25T10:03:03.685Z,80.90
2017-08-25T10:05:31.188Z,81.30
2017-08-25T10:07:58.717Z,80.60
2017-08-25T10:10:26.250Z,79.80
2017-08-25T10:12:53.751Z,80.60
2017-08-25T10:15:21.281Z,79.60
2017-08-25T10:17:48.776Z,79.60
2017-08-25T10:20:16.264Z,80.30
2017-08-25T10:22:43.773Z,79.50
2017-08-25T10:25:11.285Z,80.90
2017-08-25T10:27:38.802Z,78.90
2017-08-25T10:30:06.322Z,78.50
2017-08-25T10:32:33.865Z,79.30
2017-08-25T10:38:15.798Z,79.90
2017-08-25T10:40:55.186Z,79.10
2017-08-25T10:43:34.474Z,78.40
2017-08-25T10:46:02.005Z,78.20
2017-08-25T10:48:29.530Z,77.90
2017-08-25T10:50:57.272Z,78.10
2017-08-25T10:53:24.785Z,78.30
2017-08-25T10:55:52.324Z,78.00
2017-08-25T10:58:19.841Z,77.70
2017-08-25T11:00:47.369Z,78.40
2017-08-25T11:03:14.884Z,78.30
2017-08-25T11:05:42.435Z,77.50
2017-08-25T11:08:09.953Z,78.30
2017-08-25T11:10:37.484Z,77.80
2017-08-25T11:13:05.001Z,78.80
2017-08-25T11:15:32.537Z,78.50
2017-08-25T11:18:00.082Z,77.20
2017-08-25T11:20:27.603Z,78.30
2017-08-25T11:22:55.148Z,76.10
2017-08-25T11:25:22.666Z,76.80
2017-08-25T11:27:50.221Z,75.40
2017-08-25T11:30:17.733Z,76.00
2017-08-25T11:32:45.336Z,75.40
2017-08-25T11:35:12.889Z,75.60
2017-08-25T11:37:40.434Z,77.10
2017-08-25T11:40:07.960Z,77.00
2017-08-25T11:42:35.490Z,76.60
2017-08-25T11:45:03.078Z,76.10
2017-08-25T11:47:30.598Z,75.00
2017-08-25T11:49:58.136Z,75.00
2017-08-25T11:52:25.632Z,75.00
2017-08-25T11:54:53.152Z,75.80
2017-08-25T11:57:20.688Z,77.30
2017-08-25T11:59:49.284Z,75.70
2017-08-25T12:02:16.829Z,75.10
2017-08-25T12:04:44.347Z,75.50
2017-08-25T12:07:11.869Z,75.20
2017-08-25T12:09:42.286Z,74.90
2017-08-25T12:12:09.808Z,75.90
2017-08-25T12:14:37.366Z,74.80
2017-08-25T12:17:04.917Z,74.20
2017-08-25T12:19:32.431Z,72.70
2017-08-25T12:21:59.989Z,73.40
2017-08-25T12:24:27.517Z,73.70
2017-08-25T12:26:55.065Z,72.80
2017-08-25T12:29:22.584Z,72.50
2017-08-25T12:31:50.150Z,72.60
2017-08-25T12:34:17.671Z,72.50
2017-08-25T12:36:45.205Z,72.30
2017-08-25T12:39:12.853Z,73.60
2017-08-25T12:41:40.379Z,74.10
2017-08-25T12:44:07.930Z,74.10
2017-08-25T12:46:35.448Z,72.80
2017-08-25T12:49:02.983Z,73.50
2017-08-25T12:51:30.536Z,72.30
2017-08-25T12:53:58.045Z,74.20
2017-08-25T12:56:25.588Z,75.00
2017-08-25T12:58:53.104Z,73.90
2017-08-25T13:01:20.655Z,72.80
2017-08-25T13:03:48.190Z,73.40
2017-08-25T13:06:15.748Z,73.20
2017-08-25T13:08:43.257Z,73.50
2017-08-25T13:11:10.797Z,72.10
2017-08-25T13:13:38.325Z,71.70
2017-08-25T13:16:05.828Z,71.60
2017-08-25T13:18:33.341Z,72.30
2017-08-25T13:21:00.853Z,69.80
2017-08-25T13:23:28.371Z,70.30
2017-08-25T13:25:55.910Z,71.40
2017-08-25T13:28:23.434Z,73.30
2017-08-25T13:30:50.966Z,71.70
2017-08-25T13:33:18.466Z,72.00
2017-08-25T13:35:48.017Z,71.30
2017-08-25T13:38:15.516Z,71.10
2017-08-25T13:40:43.052Z,69.90
2017-08-25T13:43:10.544Z,70.10
2017-08-25T13:45:38.036Z,69.00
2017-08-25T13:48:05.556Z,67.70
2017-08-25T13:50:33.052Z,68.90
2017-08-25T13:53:00.568Z,67.60
2017-08-25T13:55:28.069Z,70.10
2017-08-25T13:57:55.598Z,68.70
2017-08-25T14:00:23.100Z,69.70
2017-08-25T14:02:50.592Z,69.80
2017-08-25T14:05:18.100Z,68.50
2017-08-25T14:07:45.596Z,67.70
2017-08-25T14:10:13.110Z,67.80
2017-08-25T14:12:40.612Z,69.10
2017-08-25T14:15:08.160Z,69.30
2017-08-25T14:17:36.364Z,67.50
2017-08-25T14:20:03.869Z,66.60
2017-08-25T14:22:31.385Z,67.20
2017-08-25T14:24:58.893Z,68.70
2017-08-25T14:27:26.422Z,67.30
2017-08-25T14:29:53.931Z,67.80
2017-08-25T14:32:21.468Z,67.60
2017-08-25T14:34:49.004Z,66.80
2017-08-25T14:37:16.496Z,67.00
2017-08-25T14:39:44.013Z,67.00
2017-08-25T14:42:11.532Z,68.00
2017-08-25T14:44:39.058Z,67.20
2017-08-25T14:47:06.554Z,69.20
2017-08-25T14:49:34.076Z,68.40
2017-08-25T14:52:01.623Z,68.50
2017-08-25T14:54:29.118Z,68.50
2017-08-25T14:56:56.637Z,67.40
2017-08-25T14:59:24.136Z,66.80
2017-08-25T15:01:51.659Z,67.80
2017-08-25T15:04:19.155Z,65.70
2017-08-25T15:06:46.673Z,66.50
2017-08-25T15:09:14.173Z,65.80
2017-08-25T15:11:41.677Z,66.50
2017-08-25T15:14:09.197Z,67.30
2017-08-25T15:16:36.692Z,67.10
2017-08-25T15:19:04.220Z,67.80
2017-08-25T15:21:31.712Z,66.40
2017-08-25T15:23:59.239Z,67.10
2017-08-25T15:26:26.741Z,67.30
2017-08-25T15:28:54.333Z,66.10
2017-08-25T15:31:21.842Z,67.30
2017-08-25T15:33:49.382Z,65.80
2017-08-25T15:36:16.921Z,66.30
2017-08-25T15:38:44.444Z,67.90
2017-08-25T15:41:11.996Z,66.80
2017-08-25T15:43:39.525Z,65.60
2017-08-25T15:46:07.075Z,66.80
2017-08-25T15:48:34.622Z,67.50
2017-08-25T15:51:02.158Z,68.10
2017-08-25T15:53:29.677Z,68.90
2017-08-25T15:55:57.212Z,68.60
2017-08-25T15:58:24.766Z,68.10
2017-08-25T16:00:52.309Z,68.00
2017-08-25T16:03:19.849Z,66.90
2017-08-25T16:05:47.353Z,67.80
2017-08-25T16:08:14.909Z,69.60
2017-08-25T16:10:42.446Z,68.90
2017-08-25T16:13:09.971Z,69.70
2017-08-25T16:15:37.507Z,70.40
2017-08-25T16:18:05.057Z,70.30
2017-08-25T16:20:32.591Z,71.00
2017-08-25T16:23:00.108Z,71.40
2017-08-25T16:25:27.644Z,72.30
2017-08-25T16:27:55.174Z,72.20
2017-08-25T16:30:22.701Z,72.50
2017-08-25T16:32:50.236Z,73.30
2017-08-25T16:35:17.761Z,73.30
2017-08-25T16:37:45.308Z,73.20
2017-08-25T16:40:12.820Z,73.50
2017-08-25T16:42:40.345Z,73.20
2017-08-25T16:45:07.857Z,74.10
2017-08-25T16:47:35.364Z,74.10
2017-08-25T16:50:02.906Z,75.30
2017-08-25T16:52:30.418Z,75.80
2017-08-25T16:54:57.965Z,76.70
2017-08-25T16:57:25.486Z,76.60
2017-08-25T16:59:53.047Z,77.60
2017-08-25T17:02:20.541Z,77.90
2017-08-25T17:04:48.045Z,77.00
2017-08-25T17:07:15.555Z,78.10
2017-08-25T17:09:43.057Z,77.90
2017-08-25T17:12:10.576Z,79.10
2017-08-25T17:14:38.841Z,80.30
2017-08-25T17:17:06.376Z,79.40
2017-08-25T17:19:33.868Z,80.70
2017-08-25T17:22:01.363Z,79.60
2017-08-25T17:24:28.880Z,80.20
2017-08-25T17:26:56.390Z,80.90
2017-08-25T17:29:23.912Z,81.50
2017-08-25T17:31:51.426Z,82.10
2017-08-25T17:34:18.950Z,82.20
2017-08-25T17:36:46.459Z,82.60
2017-08-25T17:39:13.964Z,84.20
2017-08-25T17:41:41.488Z,83.50
2017-08-25T17:44:08.992Z,84.40
2017-08-25T17:46:36.520Z,83.90
2017-08-25T17:49:04.018Z,84.90
2017-08-25T17:51:31.522Z,86.00
2017-08-25T17:53:59.042Z,85.20
2017-08-25T17:56:26.541Z,86.50
2017-08-25T17:58:54.057Z,86.10
2017-08-25T18:01:21.549Z,85.70
2017-08-25T18:03:49.072Z,86.60
2017-08-25T18:06:16.568Z,87.80
2017-08-25T18:08:44.069Z,88.10
2017-08-25T18:11:11.586Z,89.30
2017-08-25T18:13:39.105Z,90.00
2017-08-25T18:16:06.618Z,90.30
2017-08-25T18:18:34.112Z,90.40
2017-08-25T18:21:01.629Z,90.90
2017-08-25T18:23:29.120Z,91.00
2017-08-25T18:25:57.553Z,91.20
2017-08-25T18:28:25.077Z,91.10
2017-08-25T18:30:52.600Z,91.10
2017-08-25T18:33:20.155Z,91.30
2017-08-25T18:35:47.718Z,91.10
2017-08-25T18:38:15.284Z,91.40
2017-08-25T18:40:42.790Z,91.50
2017-08-25T18:43:10.317Z,91.60
2017-08-25T18:45:37.829Z,91.70
2017-08-25T18:48:05.366Z,92.20
2017-08-25T18:50:32.912Z,91.70
2017-08-25T18:53:00.452Z,91.90
2017-08-25T18:55:29.188Z,92.10
2017-08-25T18:57:56.706Z,92.40
2017-08-25T19:00:24.237Z,92.50
2017-08-25T19:02:51.781Z,92.20
2017-08-25T19:05:19.302Z,92.00
2017-08-25T19:07:46.849Z,92.50
2017-08-25T19:10:14.440Z,92.70
2017-08-25T19:12:41.985Z,92.60
2017-08-25T19:15:09.511Z,92.80
2017-08-25T19:17:37.200Z,92.90
2017-08-25T19:20:08.501Z,93.40
2017-08-25T19:22:36.028Z,93.30
2017-08-25T19:25:07.117Z,93.40
2017-08-25T19:27:34.659Z,93.40
2017-08-25T19:30:03.502Z,93.80
2017-08-25T19:32:32.584Z,93.90
2017-08-25T19:35:02.988Z,94.00
2017-08-25T19:37:33.487Z,94.40
2017-08-25T19:40:01.449Z,94.00
2017-08-25T19:42:29.022Z,94.40
2017-08-25T19:44:56.609Z,94.10
2017-08-25T19:47:24.141Z,94.30
2017-08-25T19:49:51.711Z,94.50
2017-08-25T19:52:19.257Z,94.20
2017-08-25T19:54:49.685Z,94.40
2017-08-25T19:57:19.317Z,94.60
2017-08-25T19:59:46.850Z,94.80
2017-08-25T20:02:14.388Z,94.80
2017-08-25T20:04:41.909Z,94.60
2017-08-25T20:07:09.475Z,94.80
2017-08-25T20:09:39.003Z,94.70
2017-08-25T20:12:06.570Z,94.60
2017-08-25T20:14:34.097Z,94.90
2017-08-25T20:17:01.617Z,94.80
2017-08-25T20:19:29.155Z,94.60
2017-08-25T20:21:56.702Z,94.60
2017-08-25T20:24:24.266Z,94.70
2017-08-25T20:26:51.804Z,94.30
2017-08-25T20:29:19.364Z,94.60
2017-08-25T20:31:46.897Z,94.50
2017-08-25T20:34:14.422Z,94.50
2017-08-25T20:36:41.972Z,94.40
2017-08-25T20:39:09.534Z,94.40
2017-08-25T20:41:37.918Z,94.10
2017-08-25T20:44:08.527Z,94.30
2017-08-25T20:46:39.224Z,94.10
2017-08-25T20:49:09.868Z,93.90
2017-08-25T20:51:37.423Z,93.90
2017-08-25T20:54:07.565Z,94.30
2017-08-25T20:56:37.573Z,94.10
2017-08-25T20:59:05.127Z,94.20
2017-08-25T21:01:34.378Z,94.30
2017-08-25T21:04:03.053Z,94.40
2017-08-25T21:06:31.613Z,94.50
2017-08-25T21:09:02.277Z,94.40
2017-08-25T21:11:29.942Z,94.60
2017-08-25T21:13:59.410Z,94.30
2017-08-25T21:16:27.035Z,94.10
2017-08-25T21:18:54.556Z,94.10
2017-08-25T21:21:24.717Z,94.10
2017-08-25T21:23:52.226Z,94.00
2017-08-25T21:26:19.752Z,94.10
2017-08-25T21:28:47.254Z,93.70
2017-08-25T21:31:14.791Z,93.60
2017-08-25T21:33:42.297Z,93.80
2017-08-25T21:36:09.799Z,93.90
2017-08-25T21:38:37.335Z,93.90
2017-08-25T21:41:04.832Z,93.90
2017-08-25T21:43:32.362Z,93.90
2017-08-25T21:45:59.857Z,94.20
2017-08-25T21:48:27.380Z,94.30
2017-08-25T21:50:54.885Z,94.40
2017-08-25T21:53:22.385Z,94.60
2017-08-25T21:55:49.920Z,94.80
2017-08-25T21:58:17.429Z,94.80
2017-08-25T22:00:44.957Z,95.00
2017-08-25T22:03:12.456Z,95.00
2017-08-25T22:05:39.973Z,95.10
2017-08-25T22:08:07.486Z,95.10
2017-08-25T22:10:35.002Z,95.10
2017-08-25T22:13:02.532Z,95.30
2017-08-25T22:15:30.033Z,95.40
2017-08-25T22:17:57.561Z,95.80
2017-08-25T22:20:25.078Z,95.50
2017-08-25T22:22:52.604Z,95.40
2017-08-25T22:25:20.118Z,95.50
2017-08-25T22:27:47.615Z,95.60
2017-08-25T22:30:15.134Z,95.50
2017-08-25T22:32:42.636Z,95.50
2017-08-25T22:35:10.165Z,95.40
2017-08-25T22:37:37.669Z,95.50
2017-08-25T22:40:05.197Z,95.70
2017-08-25T22:42:32.693Z,95.80
2017-08-25T22:45:00.194Z,96.00
2017-08-25T22:47:27.721Z,96.20
2017-08-25T22:49:55.220Z,96.30
2017-08-25T22:52:22.736Z,97.00
2017-08-25T22:54:50.229Z,96.80
2017-08-25T22:57:17.748Z,96.90
2017-08-25T22:59:45.250Z,97.00
2017-08-25T23:02:12.752Z,97.10
2017-08-25T23:04:40.273Z,97.10
2017-08-25T23:07:07.792Z,97.30
2017-08-25T23:09:35.326Z,97.50
2017-08-25T23:12:02.833Z,97.60
2017-08-25T23:14:30.576Z,97.60
2017-08-25T23:16:58.082Z,97.70
2017-08-25T23:19:25.575Z,97.80
2017-08-25T23:21:53.092Z,97.90
2017-08-25T23:24:20.590Z,98.00
2017-08-25T23:26:48.113Z,98.00
2017-08-25T23:29:15.619Z,98.10
2017-08-25T23:31:43.156Z,98.10
2017-08-25T23:34:10.660Z,98.20
2017-08-25T23:36:38.169Z,98.20
2017-08-25T23:39:05.689Z,98.20
2017-08-25T23:41:34.544Z,98.20
2017-08-25T23:44:02.101Z,98.40
2017-08-25T23:46:29.604Z,98.40
2017-08-25T23:48:57.149Z,98.40
2017-08-25T23:51:24.643Z,98.40
2017-08-25T23:53:52.148Z,98.50
2017-08-25T23:56:19.676Z,98.60
2017-08-25T23:58:47.176Z,98.80
